createdAt,value
2023-03-30T00:00:47.720Z,99826.34
2023-03-30T00:03:55.213Z,99818.41
2023-03-30T00:07:01.287Z,99808.38
2023-03-30T00:10:07.167Z,99801.94
2023-03-30T00:13:10.169Z,99792.25
2023-03-30T00:16:15.528Z,99791.47
2023-03-30T00:19:23.009Z,99787.50
2023-03-30T00:22:28.201Z,99782.41
2023-03-30T00:25:30.974Z,99793.25
2023-03-30T00:28:37.243Z,99800.03
2023-03-30T00:31:42.920Z,99796.88
2023-03-30T00:34:50.006Z,99801.97
2023-03-30T00:37:52.740Z,99797.41
2023-03-30T00:40:57.667Z,99779.13
2023-03-30T00:44:02.108Z,99782.31
2023-03-30T00:47:05.161Z,99770.66
2023-03-30T00:50:10.642Z,99773.38
2023-03-30T00:53:17.295Z,99776.78
2023-03-30T00:56:27.021Z,99779.56
2023-03-30T00:59:29.763Z,99788.16
2023-03-30T01:02:37.647Z,99781.38
2023-03-30T01:05:44.800Z,99775.91
2023-03-30T01:08:51.337Z,99778.69
2023-03-30T01:11:54.414Z,99779.72
2023-03-30T01:15:00.305Z,99774.16
2023-03-30T01:18:24.157Z,99768.00
2023-03-30T01:22:17.621Z,99766.25
2023-03-30T01:26:16.328Z,99758.38
2023-03-30T01:29:33.059Z,99755.41
2023-03-30T01:33:23.955Z,99753.13
2023-03-30T01:37:15.837Z,99748.59
2023-03-30T01:40:25.197Z,99752.78
2023-03-30T01:43:35.989Z,99759.38
2023-03-30T01:46:43.101Z,99754.75
2023-03-30T01:50:00.860Z,99750.56
2023-03-30T01:53:13.669Z,99748.63
2023-03-30T01:56:24.833Z,99734.47
2023-03-30T01:59:32.534Z,99741.47
2023-03-30T02:02:36.160Z,99755.50
2023-03-30T02:05:41.188Z,99745.97
2023-03-30T02:08:46.193Z,99755.66
2023-03-30T02:11:53.636Z,99763.16
2023-03-30T02:15:00.098Z,99767.28
2023-03-30T02:18:03.094Z,99758.81
2023-03-30T02:21:06.384Z,99761.94
2023-03-30T02:24:17.729Z,99769.72
2023-03-30T02:27:23.020Z,99772.22
2023-03-30T02:30:25.886Z,99779.16
2023-03-30T02:33:36.719Z,99767.75
2023-03-30T02:37:00.307Z,99767.28
2023-03-30T02:40:19.056Z,99763.41
2023-03-30T02:43:34.671Z,99747.81
2023-03-30T02:46:52.429Z,99754.00
2023-03-30T02:50:01.629Z,99754.81
2023-03-30T02:53:13.648Z,99768.00
2023-03-30T02:56:22.736Z,99767.63
2023-03-30T02:59:31.742Z,99763.03
2023-03-30T03:02:40.641Z,99754.25
2023-03-30T03:05:45.222Z,99748.00
2023-03-30T03:08:49.612Z,99715.84
2023-03-30T03:11:53.365Z,99720.13
2023-03-30T03:14:57.787Z,99736.41
2023-03-30T03:18:01.664Z,99711.22
2023-03-30T03:21:04.680Z,99719.06
2023-03-30T03:24:08.187Z,99725.22
2023-03-30T03:27:10.945Z,99753.16
2023-03-30T03:30:15.547Z,99755.38
2023-03-30T03:33:20.206Z,99754.00
2023-03-30T03:36:23.563Z,99728.00
2023-03-30T03:39:27.045Z,99730.72
2023-03-30T03:42:29.799Z,99737.94
2023-03-30T03:45:33.994Z,99760.19
2023-03-30T03:48:36.683Z,99758.69
2023-03-30T03:51:39.568Z,99754.50
2023-03-30T03:54:42.224Z,99739.72
2023-03-30T03:57:45.790Z,99719.97
2023-03-30T04:00:50.682Z,99741.66
2023-03-30T04:03:53.697Z,99731.81
2023-03-30T04:06:56.624Z,99719.41
2023-03-30T04:09:59.265Z,99716.13
2023-03-30T04:13:02.232Z,99706.72
2023-03-30T04:16:07.648Z,99693.31
2023-03-30T04:19:12.604Z,99684.75
2023-03-30T04:22:15.643Z,99674.44
2023-03-30T04:25:22.594Z,99665.63
2023-03-30T04:28:29.808Z,99672.66
2023-03-30T04:31:35.899Z,99669.53
2023-03-30T04:34:38.662Z,99679.28
2023-03-30T04:37:42.481Z,99672.31
2023-03-30T04:40:45.109Z,99670.06
2023-03-30T04:43:55.634Z,99670.44
2023-03-30T04:46:59.734Z,99668.06
2023-03-30T04:50:03.667Z,99659.16
2023-03-30T04:53:12.719Z,99643.66
2023-03-30T04:56:15.501Z,99653.44
2023-03-30T04:59:18.315Z,99635.91
2023-03-30T05:02:22.725Z,99638.28
2023-03-30T05:05:25.609Z,99629.94
2023-03-30T05:08:28.394Z,99630.63
2023-03-30T05:11:31.071Z,99619.50
2023-03-30T05:14:33.844Z,99626.50
2023-03-30T05:17:40.919Z,99611.09
2023-03-30T05:20:43.618Z,99608.16
2023-03-30T05:23:46.402Z,99605.34
2023-03-30T05:26:49.036Z,99625.94
2023-03-30T05:29:55.450Z,99631.16
2023-03-30T05:32:59.528Z,99634.47
2023-03-30T05:36:05.089Z,99629.78
2023-03-30T05:39:09.091Z,99631.34
2023-03-30T05:42:11.798Z,99644.53
2023-03-30T05:45:16.639Z,99641.75
2023-03-30T05:48:47.962Z,99639.31
2023-03-30T05:51:50.996Z,99632.94
2023-03-30T05:54:53.657Z,99652.81
2023-03-30T05:57:56.988Z,99677.13
2023-03-30T06:00:59.719Z,99691.50
2023-03-30T06:04:06.222Z,99691.50
2023-03-30T06:07:08.985Z,99693.28
2023-03-30T06:10:12.928Z,99697.97
2023-03-30T06:13:15.601Z,99709.38
2023-03-30T06:16:25.623Z,99724.28
2023-03-30T06:19:29.745Z,99743.41
2023-03-30T06:22:32.550Z,99761.16
2023-03-30T06:25:35.945Z,99780.25
2023-03-30T06:28:41.267Z,99805.00
2023-03-30T06:31:44.225Z,99815.84
2023-03-30T06:34:48.465Z,99817.44
2023-03-30T06:37:51.795Z,99832.94
2023-03-30T06:40:54.442Z,99822.97
2023-03-30T06:43:57.170Z,99819.28
2023-03-30T06:46:59.888Z,99807.53
2023-03-30T06:50:04.060Z,99809.50
2023-03-30T06:53:10.555Z,99821.25
2023-03-30T06:56:13.284Z,99825.78
2023-03-30T06:59:16.431Z,99815.81
2023-03-30T07:02:19.129Z,99822.19
2023-03-30T07:05:25.732Z,99819.47
2023-03-30T07:08:28.711Z,99810.38
2023-03-30T07:11:33.748Z,99808.63
2023-03-30T07:14:39.595Z,99787.94
2023-03-30T07:17:42.900Z,99770.63
2023-03-30T07:20:47.458Z,99743.47
2023-03-30T07:23:51.023Z,99745.41
2023-03-30T07:26:57.224Z,99749.09
2023-03-30T07:30:10.229Z,99750.75
2023-03-30T07:33:23.566Z,99751.81
2023-03-30T07:36:27.675Z,99766.66
2023-03-30T07:39:32.753Z,99775.50
2023-03-30T07:42:36.786Z,99757.28
2023-03-30T07:45:39.500Z,99769.34
2023-03-30T07:48:42.360Z,99749.84
2023-03-30T07:51:46.332Z,99742.56
2023-03-30T07:54:49.023Z,99754.13
2023-03-30T07:57:58.166Z,99752.00
2023-03-30T08:01:03.053Z,99738.13
2023-03-30T08:04:10.692Z,99732.47
2023-03-30T08:07:14.817Z,99717.75
2023-03-30T08:10:20.645Z,99713.84
2023-03-30T08:13:29.402Z,99701.81
2023-03-30T08:16:32.780Z,99712.66
2023-03-30T08:19:35.683Z,99715.44
2023-03-30T08:22:43.430Z,99698.84
2023-03-30T08:25:47.874Z,99682.34
2023-03-30T08:28:56.978Z,99637.81
2023-03-30T08:31:59.728Z,99659.94
2023-03-30T08:35:02.627Z,99664.75
2023-03-30T08:38:06.602Z,99661.13
2023-03-30T08:41:32.843Z,99675.31
2023-03-30T08:44:40.767Z,99662.75
2023-03-30T08:47:48.873Z,99654.53
2023-03-30T08:50:58.521Z,99675.88
2023-03-30T08:54:06.451Z,99667.69
2023-03-30T08:57:23.976Z,99679.13
2023-03-30T09:00:37.844Z,99685.22
2023-03-30T09:03:43.735Z,99706.66
2023-03-30T09:06:51.283Z,99708.03
2023-03-30T09:09:57.767Z,99691.25
2023-03-30T09:13:05.934Z,99667.38
2023-03-30T09:16:26.665Z,99673.69
2023-03-30T09:19:36.260Z,99674.34
2023-03-30T09:22:42.223Z,99686.47
2023-03-30T09:26:04.404Z,99700.63
2023-03-30T09:29:13.860Z,99700.06
2023-03-30T09:32:25.006Z,99704.28
2023-03-30T09:35:37.389Z,99725.22
2023-03-30T09:38:41.957Z,99703.34
2023-03-30T09:42:09.559Z,99704.03
2023-03-30T09:45:15.901Z,99711.22
2023-03-30T09:48:18.559Z,99690.31
2023-03-30T09:51:24.200Z,99707.75
2023-03-30T09:54:36.725Z,99705.06
2023-03-30T09:57:40.803Z,99704.84
2023-03-30T10:00:44.044Z,99705.94
2023-03-30T10:04:06.147Z,99687.91
2023-03-30T10:07:22.960Z,99675.63
2023-03-30T10:10:33.594Z,99678.47
2023-03-30T10:13:46.553Z,99689.88
2023-03-30T10:16:49.296Z,99673.53
2023-03-30T10:23:03.307Z,99674.72
2023-03-30T10:26:13.351Z,99675.34
2023-03-30T10:29:19.615Z,99672.22
2023-03-30T10:32:27.690Z,99647.25
2023-03-30T10:35:35.724Z,99647.25
2023-03-30T10:38:42.018Z,99651.03
2023-03-30T10:41:49.516Z,99638.19
2023-03-30T10:44:56.106Z,99641.13
2023-03-30T10:48:19.129Z,99660.75
2023-03-30T10:51:29.632Z,99647.75
2023-03-30T10:54:37.727Z,99638.66
2023-03-30T10:57:55.263Z,99631.56
2023-03-30T11:01:08.585Z,99646.75
2023-03-30T11:04:24.158Z,99644.53
2023-03-30T11:07:31.827Z,99653.53
2023-03-30T11:10:37.867Z,99653.41
2023-03-30T11:13:44.900Z,99642.34
2023-03-30T11:16:58.585Z,99654.50
2023-03-30T11:20:23.652Z,99645.41
2023-03-30T11:23:36.107Z,99650.41
2023-03-30T11:26:43.043Z,99662.22
2023-03-30T11:29:50.628Z,99659.44
2023-03-30T11:33:00.400Z,99651.47
2023-03-30T11:36:07.797Z,99653.81
2023-03-30T11:39:29.007Z,99654.19
2023-03-30T11:42:39.584Z,99654.47
2023-03-30T11:45:54.160Z,99646.38
2023-03-30T11:49:18.950Z,99648.50
2023-03-30T11:52:30.394Z,99642.22
2023-03-30T11:55:52.044Z,99647.50
2023-03-30T11:59:04.620Z,99644.13
2023-03-30T12:02:19.498Z,99659.34
2023-03-30T12:05:29.749Z,99650.81
2023-03-30T12:08:52.969Z,99639.22
2023-03-30T12:12:03.312Z,99638.16
2023-03-30T12:15:26.645Z,99635.81
2023-03-30T12:18:37.560Z,99626.38
2023-03-30T12:21:53.199Z,99631.34
2023-03-30T12:25:08.224Z,99616.19
2023-03-30T12:28:14.342Z,99608.66
2023-03-30T12:31:17.181Z,99602.16
2023-03-30T12:34:21.443Z,99596.88
2023-03-30T12:37:29.511Z,99574.72
2023-03-30T12:40:32.211Z,99589.50
2023-03-30T12:43:43.108Z,99569.25
2023-03-30T12:46:58.479Z,99580.78
2023-03-30T12:50:16.430Z,99561.84
2023-03-30T12:53:47.932Z,99576.84
2023-03-30T12:56:59.456Z,99588.13
2023-03-30T13:00:24.854Z,99589.34
2023-03-30T13:03:40.657Z,99576.94
2023-03-30T13:06:52.021Z,99577.69
2023-03-30T13:09:59.394Z,99604.50
2023-03-30T13:13:03.945Z,99585.66
2023-03-30T13:16:13.594Z,99589.22
2023-03-30T13:19:29.022Z,99593.22
2023-03-30T13:22:33.256Z,99585.34
2023-03-30T13:26:04.299Z,99575.81
2023-03-30T13:29:11.179Z,99568.44
2023-03-30T13:32:22.141Z,99559.69
2023-03-30T13:35:49.692Z,99569.59
2023-03-30T13:39:07.609Z,99570.41
2023-03-30T13:42:33.346Z,99576.81
2023-03-30T13:45:47.008Z,99576.34
2023-03-30T13:49:03.617Z,99568.44
2023-03-30T13:52:11.938Z,99566.25
2023-03-30T13:55:18.900Z,99576.72
2023-03-30T13:58:32.815Z,99559.28
2023-03-30T14:01:39.636Z,99561.16
2023-03-30T14:04:44.713Z,99563.59
2023-03-30T14:07:49.041Z,99567.81
2023-03-30T14:10:52.362Z,99568.38
2023-03-30T14:13:59.073Z,99555.69
2023-03-30T14:17:05.415Z,99562.31
2023-03-30T14:20:24.555Z,99561.41
2023-03-30T14:23:35.329Z,99545.41
2023-03-30T14:26:42.103Z,99545.41
2023-03-30T14:29:51.747Z,99544.16
2023-03-30T14:33:09.102Z,99558.66
2023-03-30T14:36:15.442Z,99545.63
2023-03-30T14:39:23.917Z,99548.06
2023-03-30T14:42:39.435Z,99545.91
2023-03-30T14:45:44.122Z,99551.81
2023-03-30T14:48:50.776Z,99535.06
2023-03-30T14:52:02.052Z,99532.47
2023-03-30T14:55:09.451Z,99542.66
2023-03-30T14:58:16.318Z,99536.56
2023-03-30T15:01:31.530Z,99559.56
2023-03-30T15:04:38.408Z,99539.59
2023-03-30T15:07:47.918Z,99543.06
2023-03-30T15:10:53.705Z,99535.53
2023-03-30T15:13:59.002Z,99572.63
2023-03-30T15:17:09.373Z,99565.66
2023-03-30T15:20:13.842Z,99615.19
2023-03-30T15:23:17.325Z,99701.28
2023-03-30T15:26:21.316Z,99730.84
2023-03-30T15:29:24.926Z,99737.97
2023-03-30T15:32:35.086Z,99687.28
2023-03-30T15:35:38.775Z,99676.72
2023-03-30T15:38:48.300Z,99670.78
2023-03-30T15:42:02.014Z,99662.91
2023-03-30T15:45:13.779Z,99655.22
2023-03-30T15:48:21.063Z,99657.09
2023-03-30T15:51:29.663Z,99649.88
2023-03-30T15:54:38.530Z,99657.69
2023-03-30T15:57:44.449Z,99658.56
2023-03-30T16:00:48.307Z,99655.56
2023-03-30T16:03:56.775Z,99651.81
2023-03-30T16:06:59.567Z,99656.81
2023-03-30T16:10:02.262Z,99664.91
2023-03-30T16:13:06.969Z,99648.75
2023-03-30T16:16:11.085Z,99651.22
2023-03-30T16:19:19.170Z,99649.25
2023-03-30T16:22:22.478Z,99630.97
2023-03-30T16:25:37.796Z,99637.31
2023-03-30T16:28:45.027Z,99632.22
2023-03-30T16:31:49.600Z,99633.03
2023-03-30T16:34:54.948Z,99633.00
2023-03-30T16:37:58.174Z,99630.47
2023-03-30T16:41:02.470Z,99646.91
2023-03-30T16:44:06.002Z,99640.19
2023-03-30T16:47:10.062Z,99642.22
2023-03-30T16:50:21.354Z,99661.13
2023-03-30T16:53:24.309Z,99649.22
2023-03-30T16:56:27.753Z,99660.63
2023-03-30T16:59:32.319Z,99650.13
2023-03-30T17:02:35.023Z,99657.38
2023-03-30T17:05:40.302Z,99661.00
2023-03-30T17:08:43.324Z,99660.78
2023-03-30T17:11:47.382Z,99660.28
2023-03-30T17:14:51.896Z,99664.97
2023-03-30T17:17:55.224Z,99665.69
2023-03-30T17:21:01.204Z,99671.84
2023-03-30T17:24:06.205Z,99674.50
2023-03-30T17:27:10.019Z,99674.00
2023-03-30T17:30:19.640Z,99677.81
2023-03-30T17:33:25.723Z,99689.09
2023-03-30T17:36:30.182Z,99684.69
2023-03-30T17:39:32.968Z,99702.03
2023-03-30T17:42:35.554Z,99685.44
2023-03-30T17:45:54.225Z,99682.97
2023-03-30T17:48:59.255Z,99682.16
2023-03-30T17:52:03.300Z,99694.19
2023-03-30T17:55:09.639Z,99709.63
2023-03-30T17:58:18.258Z,99716.63
2023-03-30T18:01:20.989Z,99711.09
2023-03-30T18:04:28.868Z,99713.25
2023-03-30T18:07:33.752Z,99720.25
2023-03-30T18:10:39.115Z,99717.50
2023-03-30T18:13:41.831Z,99723.16
2023-03-30T18:16:45.971Z,99723.25
2023-03-30T18:19:48.795Z,99726.59
2023-03-30T18:22:58.539Z,99732.84
2023-03-30T18:26:03.803Z,99737.16
2023-03-30T18:29:20.388Z,99741.66
2023-03-30T18:32:37.036Z,99753.16
2023-03-30T18:35:44.418Z,99760.19
2023-03-30T18:39:19.268Z,99758.47
2023-03-30T18:42:30.327Z,99760.81
2023-03-30T18:45:35.458Z,99762.06
2023-03-30T18:48:38.066Z,99772.28
2023-03-30T18:51:46.014Z,99777.91
2023-03-30T18:54:50.036Z,99785.69
2023-03-30T18:57:53.066Z,99771.69
2023-03-30T19:00:56.521Z,99770.34
2023-03-30T19:04:02.007Z,99779.84
2023-03-30T19:07:05.629Z,99797.25
2023-03-30T19:10:14.499Z,99791.09
2023-03-30T19:13:19.131Z,99800.44
2023-03-30T19:16:22.375Z,99797.03
2023-03-30T19:19:27.549Z,99809.16
2023-03-30T19:22:31.926Z,99795.16
2023-03-30T19:25:36.140Z,99790.88
2023-03-30T19:28:42.796Z,99792.50
2023-03-30T19:31:52.991Z,99786.53
2023-03-30T19:35:09.925Z,99791.59
2023-03-30T19:38:12.823Z,99791.47
2023-03-30T19:41:16.799Z,99790.41
2023-03-30T19:44:19.475Z,99800.34
2023-03-30T19:47:24.351Z,99804.09
2023-03-30T19:50:30.474Z,99794.31
2023-03-30T19:53:33.332Z,99811.81
2023-03-30T19:56:46.960Z,99820.94
2023-03-30T19:59:51.728Z,99815.59
2023-03-30T20:02:56.453Z,99816.09
2023-03-30T20:05:59.207Z,99802.34
2023-03-30T20:09:02.358Z,99796.81
2023-03-30T20:12:07.365Z,99796.16
2023-03-30T20:15:14.353Z,99803.56
2023-03-30T20:18:24.937Z,99810.06
2023-03-30T20:21:28.232Z,99803.09
2023-03-30T20:24:31.094Z,99806.69
2023-03-30T20:27:39.349Z,99806.00
2023-03-30T20:30:42.052Z,99794.28
2023-03-30T20:33:52.070Z,99790.78
2023-03-30T20:36:54.725Z,99788.38
2023-03-30T20:40:03.630Z,99781.38
2023-03-30T20:43:10.231Z,99784.31
2023-03-30T20:46:18.233Z,99766.75
2023-03-30T20:49:21.041Z,99764.28
2023-03-30T20:52:25.969Z,99761.78
2023-03-30T20:55:28.640Z,99765.78
2023-03-30T20:58:32.682Z,99767.25
2023-03-30T21:01:40.683Z,99767.25
2023-03-30T21:04:50.671Z,99767.22
2023-03-30T21:07:55.063Z,99776.44
2023-03-30T21:14:15.951Z,99775.03
2023-03-30T21:17:18.683Z,99756.88
2023-03-30T21:20:37.747Z,99764.16
2023-03-30T21:23:44.155Z,99774.78
2023-03-30T21:26:49.277Z,99777.59
2023-03-30T21:29:58.930Z,99775.66
2023-03-30T21:33:01.999Z,99778.78
2023-03-30T21:36:05.946Z,99777.03
2023-03-30T21:39:16.285Z,99753.38
2023-03-30T21:42:18.980Z,99761.94
2023-03-30T21:45:30.854Z,99750.56
2023-03-30T21:48:38.197Z,99739.50
2023-03-30T21:51:41.827Z,99733.03
2023-03-30T21:54:53.042Z,99726.81
2023-03-30T21:57:55.871Z,99713.91
2023-03-30T22:01:11.947Z,99706.03
2023-03-30T22:04:15.723Z,99716.31
2023-03-30T22:07:24.607Z,99713.78
2023-03-30T22:10:27.618Z,99703.75
2023-03-30T22:13:36.524Z,99706.94
2023-03-30T22:16:40.978Z,99702.25
2023-03-30T22:19:57.642Z,99695.06
2023-03-30T22:23:05.707Z,99698.09
2023-03-30T22:26:08.649Z,99686.75
2023-03-30T22:29:11.841Z,99679.91
2023-03-30T22:32:28.584Z,99676.78
2023-03-30T22:35:31.520Z,99669.63
2023-03-30T22:38:42.564Z,99667.81
2023-03-30T22:42:10.741Z,99664.50
2023-03-30T22:45:13.443Z,99649.81
2023-03-30T22:48:25.785Z,99653.84
2023-03-30T22:51:30.627Z,99652.03
2023-03-30T22:54:36.008Z,99646.84
2023-03-30T22:57:38.787Z,99642.78
2023-03-30T23:00:41.531Z,99638.00
2023-03-30T23:03:45.685Z,99637.06
2023-03-30T23:06:48.861Z,99642.56
2023-03-30T23:09:51.538Z,99630.16
2023-03-30T23:12:57.800Z,99623.94
2023-03-30T23:16:02.166Z,99627.06
2023-03-30T23:19:13.864Z,99623.94
2023-03-30T23:22:22.784Z,99615.09
2023-03-30T23:25:26.548Z,99611.88
2023-03-30T23:28:34.450Z,99610.59
2023-03-30T23:31:37.167Z,99602.28
2023-03-30T23:34:41.467Z,99607.44
2023-03-30T23:37:45.492Z,99608.91
2023-03-30T23:40:48.294Z,99598.16
2023-03-30T23:43:52.601Z,99597.88
2023-03-30T23:46:58.260Z,99591.56
2023-03-30T23:50:02.372Z,99582.25
2023-03-30T23:53:07.293Z,99586.19
2023-03-30T23:56:13.084Z,99583.78
2023-03-30T23:59:16.441Z,99573.19
